createdAt,value
2019-05-23T00:04:12.217Z,11.72
2019-05-23T00:08:55.402Z,11.56
2019-05-23T00:13:40.249Z,11.40
2019-05-23T00:18:06.272Z,11.40
2019-05-23T00:22:31.357Z,11.35
2019-05-23T00:26:58.602Z,11.27
2019-05-23T00:31:28.247Z,11.23
2019-05-23T00:35:53.630Z,11.14
2019-05-23T00:40:18.275Z,11.07
2019-05-23T00:44:42.734Z,11.00
2019-05-23T00:49:08.194Z,10.93
2019-05-23T00:53:32.032Z,10.88
2019-05-23T00:57:55.929Z,10.84
2019-05-23T01:02:20.605Z,10.80
2019-05-23T01:06:45.165Z,10.71
2019-05-23T01:11:10.702Z,10.63
2019-05-23T01:15:35.831Z,10.55
2019-05-23T01:19:59.891Z,10.48
2019-05-23T01:24:32.226Z,10.42
2019-05-23T01:28:57.277Z,10.34
2019-05-23T01:33:21.715Z,10.21
2019-05-23T01:37:47.816Z,10.17
2019-05-23T01:42:11.872Z,10.12
2019-05-23T01:46:36.227Z,10.08
2019-05-23T01:51:02.436Z,10.03
2019-05-23T01:55:27.334Z,10.01
2019-05-23T02:00:08.408Z,9.98
2019-05-23T02:04:18.178Z,9.95
2019-05-23T02:08:42.540Z,9.91
2019-05-23T02:13:07.116Z,9.86
2019-05-23T02:17:32.458Z,9.86
2019-05-23T02:21:57.684Z,9.83
2019-05-23T02:26:23.571Z,9.81
2019-05-23T02:30:48.230Z,9.75
2019-05-23T02:35:12.929Z,9.70
2019-05-23T02:39:53.203Z,9.70
2019-05-23T02:44:21.317Z,9.63
2019-05-23T02:48:48.190Z,9.53
2019-05-23T02:53:16.907Z,9.46
2019-05-23T02:57:41.923Z,9.45
2019-05-23T03:02:40.497Z,9.39
2019-05-23T03:07:07.322Z,9.32
2019-05-23T03:11:39.856Z,9.30
2019-05-23T03:16:06.057Z,9.27
2019-05-23T03:20:30.466Z,9.24
2019-05-23T03:24:54.962Z,9.22
2019-05-23T03:29:19.815Z,9.16
2019-05-23T03:33:45.402Z,9.11
2019-05-23T03:38:11.235Z,9.04
2019-05-23T03:42:37.403Z,8.99
2019-05-23T03:47:01.863Z,8.96
2019-05-23T03:51:26.946Z,8.95
2019-05-23T03:55:53.368Z,8.94
2019-05-23T04:00:20.847Z,8.94
2019-05-23T04:04:45.637Z,8.94
2019-05-23T04:09:12.315Z,8.96
2019-05-23T04:13:36.737Z,8.99
2019-05-23T04:18:01.267Z,9.00
2019-05-23T04:22:25.867Z,8.99
2019-05-23T04:26:49.841Z,9.02
2019-05-23T04:31:13.857Z,9.04
2019-05-23T04:35:38.001Z,9.11
2019-05-23T04:40:02.235Z,9.18
2019-05-23T04:44:26.775Z,9.24
2019-05-23T04:48:52.204Z,9.30
2019-05-23T04:53:16.433Z,9.36
2019-05-23T04:57:41.221Z,9.44
2019-05-23T05:02:24.364Z,9.53
2019-05-23T05:06:32.825Z,9.70
2019-05-23T05:10:57.729Z,9.89
2019-05-23T05:15:22.115Z,9.98
2019-05-23T05:19:46.458Z,10.04
2019-05-23T05:24:10.869Z,10.09
2019-05-23T05:28:34.762Z,10.13
2019-05-23T05:32:58.945Z,10.20
2019-05-23T05:37:22.841Z,10.32
2019-05-23T05:41:46.930Z,10.46
2019-05-23T05:46:11.172Z,10.61
2019-05-23T05:50:35.205Z,10.76
2019-05-23T05:55:01.087Z,10.96
2019-05-23T05:59:25.756Z,11.22
2019-05-23T06:03:49.959Z,11.77
2019-05-23T06:08:15.037Z,12.46
2019-05-23T06:12:40.334Z,13.18
2019-05-23T06:17:07.685Z,13.90
2019-05-23T06:21:32.745Z,14.63
2019-05-23T06:25:56.822Z,15.34
2019-05-23T06:30:23.765Z,16.09
2019-05-23T06:34:47.854Z,16.88
2019-05-23T06:39:13.919Z,17.62
2019-05-23T06:43:38.475Z,18.32
2019-05-23T06:48:03.606Z,18.88
2019-05-23T06:52:27.604Z,19.41
2019-05-23T06:56:51.665Z,19.89
2019-05-23T07:01:16.597Z,20.41
2019-05-23T07:05:41.114Z,20.83
2019-05-23T07:10:08.000Z,21.40
2019-05-23T07:14:31.897Z,21.40
2019-05-23T07:18:56.020Z,21.80
2019-05-23T07:23:21.114Z,22.40
2019-05-23T07:27:45.584Z,22.84
2019-05-23T07:32:09.685Z,22.99
2019-05-23T07:36:35.630Z,23.08
2019-05-23T07:41:00.619Z,23.61
2019-05-23T07:45:30.054Z,23.92
2019-05-23T07:49:53.962Z,24.20
2019-05-23T07:54:27.373Z,24.49
2019-05-23T07:58:51.164Z,24.50
2019-05-23T08:03:15.782Z,24.95
2019-05-23T08:07:40.214Z,25.09
2019-05-23T08:12:05.899Z,25.49
2019-05-23T08:16:30.267Z,25.62
2019-05-23T08:20:54.533Z,25.76
2019-05-23T08:25:18.707Z,25.90
2019-05-23T08:29:43.037Z,25.98
2019-05-23T08:34:09.347Z,26.13
2019-05-23T08:38:33.303Z,25.96
2019-05-23T08:42:57.459Z,26.01
2019-05-23T08:47:22.265Z,25.95
2019-05-23T08:51:46.780Z,26.22
2019-05-23T08:56:18.855Z,26.33
2019-05-23T09:00:40.494Z,26.46
2019-05-23T09:05:08.288Z,26.57
2019-05-23T09:09:32.743Z,26.68
2019-05-23T09:13:56.544Z,26.69
2019-05-23T09:18:20.604Z,26.75
2019-05-23T09:22:45.223Z,27.16
2019-05-23T09:27:10.811Z,26.92
2019-05-23T09:31:34.750Z,27.16
2019-05-23T09:35:59.259Z,27.64
2019-05-23T09:40:24.185Z,27.56
2019-05-23T09:44:48.065Z,27.52
2019-05-23T09:49:12.141Z,27.80
2019-05-23T09:53:36.365Z,27.45
2019-05-23T09:58:00.500Z,27.21
2019-05-23T10:02:27.602Z,27.24
2019-05-23T10:06:51.585Z,27.20
2019-05-23T10:11:15.781Z,27.33
2019-05-23T10:15:58.866Z,27.23
2019-05-23T10:20:26.565Z,27.23
2019-05-23T10:24:50.498Z,27.21
2019-05-23T10:29:14.675Z,27.27
2019-05-23T10:33:38.551Z,27.52
2019-05-23T10:38:02.929Z,27.36
2019-05-23T10:42:27.931Z,26.88
2019-05-23T10:46:51.735Z,27.10
2019-05-23T10:51:16.827Z,27.23
2019-05-23T10:55:40.678Z,27.47
2019-05-23T11:00:06.246Z,27.14
2019-05-23T11:04:30.213Z,26.95
2019-05-23T11:08:54.312Z,27.34
2019-05-23T11:13:18.412Z,27.36
2019-05-23T11:17:43.087Z,27.36
2019-05-23T11:22:08.012Z,27.68
2019-05-23T11:26:32.171Z,28.03
2019-05-23T11:30:58.257Z,27.95
2019-05-23T11:35:23.702Z,28.14
2019-05-23T11:39:49.841Z,28.13
2019-05-23T11:44:13.572Z,27.69
2019-05-23T11:48:37.910Z,27.42
2019-05-23T11:53:01.734Z,27.67
2019-05-23T11:57:26.176Z,27.61
2019-05-23T12:02:00.332Z,27.31
2019-05-23T12:06:26.702Z,27.31
2019-05-23T12:10:50.661Z,27.40
2019-05-23T12:15:20.599Z,27.48
2019-05-23T12:19:44.857Z,27.16
2019-05-23T12:24:10.074Z,27.21
2019-05-23T12:28:33.865Z,27.12
2019-05-23T12:32:57.677Z,27.15
2019-05-23T12:37:21.749Z,27.22
2019-05-23T12:41:46.821Z,26.76
2019-05-23T12:46:11.171Z,26.47
2019-05-23T12:50:39.922Z,26.39
2019-05-23T12:55:04.524Z,26.46
2019-05-23T12:59:28.675Z,27.15
2019-05-23T13:03:53.383Z,27.15
2019-05-23T13:08:17.573Z,27.04
2019-05-23T13:12:41.675Z,27.12
2019-05-23T13:17:06.110Z,27.09
2019-05-23T13:21:30.007Z,27.06
2019-05-23T13:25:53.804Z,27.10
2019-05-23T13:30:18.586Z,27.17
2019-05-23T13:34:42.719Z,26.75
2019-05-23T13:39:09.621Z,26.64
2019-05-23T13:43:34.516Z,26.67
2019-05-23T13:47:58.402Z,26.53
2019-05-23T13:52:22.499Z,26.46
2019-05-23T13:56:48.089Z,26.44
2019-05-23T14:01:12.686Z,26.54
2019-05-23T14:05:36.892Z,26.66
2019-05-23T14:10:00.706Z,26.51
2019-05-23T14:14:24.883Z,26.54
2019-05-23T14:18:48.876Z,26.29
2019-05-23T14:23:30.897Z,26.21
2019-05-23T14:27:59.877Z,26.19
2019-05-23T14:32:34.599Z,26.51
2019-05-23T14:37:10.240Z,26.53
2019-05-23T14:41:45.427Z,26.64
2019-05-23T14:46:17.968Z,26.94
2019-05-23T14:51:05.703Z,27.15
2019-05-23T14:55:29.622Z,26.73
2019-05-23T14:59:53.669Z,26.57
2019-05-23T15:04:18.938Z,26.53
2019-05-23T15:08:51.035Z,26.31
2019-05-23T15:13:09.367Z,26.32
2019-05-23T15:17:33.555Z,26.42
2019-05-23T15:21:57.638Z,26.49
2019-05-23T15:26:23.646Z,26.37
2019-05-23T15:30:48.593Z,26.37
2019-05-23T15:35:12.865Z,26.23
2019-05-23T15:39:36.987Z,26.04
2019-05-23T15:44:01.531Z,25.95
2019-05-23T15:48:25.536Z,25.78
2019-05-23T15:53:04.555Z,25.53
2019-05-23T15:57:53.858Z,25.23
2019-05-23T16:02:23.419Z,25.08
2019-05-23T16:06:47.687Z,25.16
2019-05-23T16:11:12.339Z,25.29
2019-05-23T16:15:36.367Z,25.29
2019-05-23T16:20:00.444Z,25.26
2019-05-23T16:24:24.624Z,25.18
2019-05-23T16:28:48.745Z,25.20
2019-05-23T16:33:12.920Z,25.01
2019-05-23T16:37:36.799Z,24.97
2019-05-23T16:42:00.927Z,24.87
2019-05-23T16:46:25.191Z,24.81
2019-05-23T16:50:49.097Z,24.78
2019-05-23T16:55:19.409Z,24.73
2019-05-23T17:00:01.872Z,24.63
2019-05-23T17:05:09.104Z,24.52
2019-05-23T17:09:40.019Z,24.49
2019-05-23T17:14:28.804Z,24.44
2019-05-23T17:18:58.243Z,24.27
2019-05-23T17:23:39.749Z,24.24
2019-05-23T17:28:08.958Z,24.19
2019-05-23T17:32:35.165Z,24.18
2019-05-23T17:36:59.284Z,24.33
2019-05-23T17:41:23.981Z,24.39
2019-05-23T17:45:49.578Z,24.30
2019-05-23T17:50:13.801Z,24.15
2019-05-23T17:54:37.642Z,24.03
2019-05-23T17:59:01.780Z,23.86
2019-05-23T18:03:26.546Z,23.70
2019-05-23T18:07:50.386Z,23.70
2019-05-23T18:12:14.690Z,23.58
2019-05-23T18:16:38.983Z,23.29
2019-05-23T18:21:04.331Z,23.29
2019-05-23T18:25:29.291Z,23.20
2019-05-23T18:29:53.368Z,23.20
2019-05-23T18:34:17.625Z,23.07
2019-05-23T18:38:41.568Z,22.73
2019-05-23T18:43:06.228Z,22.73
2019-05-23T18:47:36.704Z,22.17
2019-05-23T18:52:00.658Z,21.95
2019-05-23T18:56:24.860Z,21.95
2019-05-23T19:01:04.218Z,21.78
2019-05-23T19:05:28.800Z,21.40
2019-05-23T19:09:53.751Z,21.40
2019-05-23T19:14:18.004Z,21.38
2019-05-23T19:18:42.343Z,21.14
2019-05-23T19:23:07.976Z,21.14
2019-05-23T19:27:32.285Z,21.01
2019-05-23T19:31:56.497Z,20.83
2019-05-23T19:36:21.513Z,20.65
2019-05-23T19:40:45.620Z,20.44
2019-05-23T19:45:09.908Z,20.27
2019-05-23T19:49:34.102Z,20.27
2019-05-23T19:53:57.993Z,20.20
2019-05-23T19:58:22.070Z,20.16
2019-05-23T20:02:52.755Z,20.05
2019-05-23T20:07:17.077Z,20.02
2019-05-23T20:11:53.807Z,19.95
2019-05-23T20:16:08.082Z,19.81
2019-05-23T20:20:32.984Z,19.69
2019-05-23T20:24:57.758Z,19.56
2019-05-23T20:29:21.819Z,19.39
2019-05-23T20:33:45.628Z,19.18
2019-05-23T20:38:10.015Z,18.97
2019-05-23T20:42:33.912Z,18.71
2019-05-23T20:46:57.902Z,18.52
2019-05-23T20:51:22.260Z,18.33
2019-05-23T20:55:46.435Z,18.18
2019-05-23T21:00:12.488Z,18.03
2019-05-23T21:04:36.584Z,17.91
2019-05-23T21:09:00.655Z,17.78
2019-05-23T21:13:25.002Z,17.66
2019-05-23T21:17:49.009Z,17.49
2019-05-23T21:22:12.925Z,17.20
2019-05-23T21:26:37.072Z,17.20
2019-05-23T21:31:01.912Z,17.11
2019-05-23T21:35:25.809Z,17.00
2019-05-23T21:39:49.638Z,16.89
2019-05-23T21:44:13.931Z,16.71
2019-05-23T21:48:38.126Z,16.52
2019-05-23T21:53:01.963Z,16.28
2019-05-23T21:57:26.059Z,16.13
2019-05-23T22:01:59.194Z,16.02
2019-05-23T22:06:27.168Z,15.94
2019-05-23T22:10:51.260Z,15.84
2019-05-23T22:15:19.883Z,15.64
2019-05-23T22:19:43.859Z,15.64
2019-05-23T22:24:09.016Z,15.49
2019-05-23T22:28:32.904Z,15.41
2019-05-23T22:32:57.271Z,15.28
2019-05-23T22:37:26.855Z,15.17
2019-05-23T22:41:50.759Z,15.11
2019-05-23T22:46:15.072Z,14.99
2019-05-23T22:50:38.918Z,14.89
2019-05-23T22:55:02.748Z,14.89
2019-05-23T22:59:26.590Z,14.87
2019-05-23T23:03:50.745Z,14.82
2019-05-23T23:08:15.151Z,14.75
2019-05-23T23:12:38.961Z,14.72
2019-05-23T23:17:02.976Z,14.67
2019-05-23T23:21:27.168Z,14.65
2019-05-23T23:25:51.261Z,14.61
2019-05-23T23:30:17.539Z,14.55
2019-05-23T23:34:41.503Z,14.49
2019-05-23T23:39:07.506Z,14.38
2019-05-23T23:43:31.746Z,14.31
2019-05-23T23:48:13.490Z,14.25
2019-05-23T23:52:55.111Z,14.17
2019-05-23T23:57:36.452Z,14.08
